sensor_id;sensor_type;location;lat;lon;timestamp;pressure;altitude;pressure_sealevel;temperature;humidity
61345;BME280;47216;42.656;23.232;2023-05-10T00:00:11;94103.94;;;9.90;82.76
61345;BME280;47216;42.656;23.232;2023-05-10T00:02:38;94103.78;;;9.97;82.59
61345;BME280;47216;42.656;23.232;2023-05-10T00:05:06;94100.84;;;9.93;82.53
61345;BME280;47216;42.656;23.232;2023-05-10T00:07:33;94099.50;;;9.91;82.42
61345;BME280;47216;42.656;23.232;2023-05-10T00:10:00;94093.88;;;9.82;83.05
61345;BME280;47216;42.656;23.232;2023-05-10T00:12:27;94086.97;;;9.87;83.56
61345;BME280;47216;42.656;23.232;2023-05-10T00:14:55;94084.03;;;9.84;83.58
61345;BME280;47216;42.656;23.232;2023-05-10T00:17:21;94085.06;;;9.83;82.83
61345;BME280;47216;42.656;23.232;2023-05-10T00:19:48;94088.78;;;9.87;83.15
61345;BME280;47216;42.656;23.232;2023-05-10T00:22:15;94079.69;;;9.73;83.15
61345;BME280;47216;42.656;23.232;2023-05-10T00:24:42;94077.72;;;9.80;82.35
61345;BME280;47216;42.656;23.232;2023-05-10T00:27:09;94077.06;;;9.73;82.75
61345;BME280;47216;42.656;23.232;2023-05-10T00:29:35;94064.94;;;9.61;82.15
61345;BME280;47216;42.656;23.232;2023-05-10T00:32:04;94067.91;;;9.53;82.92
61345;BME280;47216;42.656;23.232;2023-05-10T00:34:31;94071.06;;;9.55;83.11
61345;BME280;47216;42.656;23.232;2023-05-10T00:36:58;94069.47;;;9.54;82.30
61345;BME280;47216;42.656;23.232;2023-05-10T00:39:25;94068.84;;;9.47;82.17
61345;BME280;47216;42.656;23.232;2023-05-10T00:41:52;94060.03;;;9.48;82.66
61345;BME280;47216;42.656;23.232;2023-05-10T00:44:18;94065.16;;;9.43;83.19
61345;BME280;47216;42.656;23.232;2023-05-10T00:46:46;94064.13;;;9.44;82.47
61345;BME280;47216;42.656;23.232;2023-05-10T00:49:15;94059.69;;;9.44;83.10
61345;BME280;47216;42.656;23.232;2023-05-10T00:51:42;94058.59;;;9.40;82.80
61345;BME280;47216;42.656;23.232;2023-05-10T00:54:11;94053.53;;;9.34;82.93
61345;BME280;47216;42.656;23.232;2023-05-10T00:56:38;94055.59;;;9.32;83.11
61345;BME280;47216;42.656;23.232;2023-05-10T00:59:05;94056.16;;;9.34;82.75
61345;BME280;47216;42.656;23.232;2023-05-10T01:01:32;94061.91;;;9.36;82.23
61345;BME280;47216;42.656;23.232;2023-05-10T01:03:59;94055.50;;;9.27;82.35
61345;BME280;47216;42.656;23.232;2023-05-10T01:06:28;94062.00;;;9.12;83.30
61345;BME280;47216;42.656;23.232;2023-05-10T01:08:55;94060.16;;;9.24;82.94
61345;BME280;47216;42.656;23.232;2023-05-10T01:11:22;94060.78;;;9.32;82.52
61345;BME280;47216;42.656;23.232;2023-05-10T01:13:52;94057.63;;;9.30;81.88
61345;BME280;47216;42.656;23.232;2023-05-10T01:16:21;94053.22;;;9.30;82.01
61345;BME280;47216;42.656;23.232;2023-05-10T01:18:48;94049.75;;;9.24;82.40
61345;BME280;47216;42.656;23.232;2023-05-10T01:21:20;94045.63;;;9.29;82.10
61345;BME280;47216;42.656;23.232;2023-05-10T01:24:23;94037.81;;;9.29;82.51
61345;BME280;47216;42.656;23.232;2023-05-10T01:27:17;94043.97;;;9.22;81.64
61345;BME280;47216;42.656;23.232;2023-05-10T01:30:12;94044.06;;;9.28;81.50
61345;BME280;47216;42.656;23.232;2023-05-10T01:32:48;94032.53;;;9.23;82.04
61345;BME280;47216;42.656;23.232;2023-05-10T01:35:26;94038.69;;;9.17;82.28
61345;BME280;47216;42.656;23.232;2023-05-10T01:38:02;94042.69;;;9.08;82.21
61345;BME280;47216;42.656;23.232;2023-05-10T01:40:35;94027.81;;;9.20;81.33
61345;BME280;47216;42.656;23.232;2023-05-10T01:43:10;94027.97;;;9.31;81.60
61345;BME280;47216;42.656;23.232;2023-05-10T01:45:43;94020.94;;;9.14;81.10
61345;BME280;47216;42.656;23.232;2023-05-10T01:48:14;94022.59;;;9.03;81.93
61345;BME280;47216;42.656;23.232;2023-05-10T01:50:43;94028.50;;;9.16;82.06
61345;BME280;47216;42.656;23.232;2023-05-10T01:53:11;94022.31;;;9.34;81.27
61345;BME280;47216;42.656;23.232;2023-05-10T01:55:43;94029.09;;;9.35;81.27
61345;BME280;47216;42.656;23.232;2023-05-10T01:58:15;94029.03;;;9.46;81.23
61345;BME280;47216;42.656;23.232;2023-05-10T02:00:45;94026.91;;;9.60;80.68
61345;BME280;47216;42.656;23.232;2023-05-10T02:03:14;94025.78;;;9.56;80.40
61345;BME280;47216;42.656;23.232;2023-05-10T02:05:43;94025.22;;;9.54;80.71
61345;BME280;47216;42.656;23.232;2023-05-10T02:08:13;94028.31;;;9.51;80.26
61345;BME280;47216;42.656;23.232;2023-05-10T02:10:41;94030.53;;;9.59;80.16
61345;BME280;47216;42.656;23.232;2023-05-10T02:13:10;94027.81;;;9.54;79.89
61345;BME280;47216;42.656;23.232;2023-05-10T02:15:38;94030.19;;;9.73;79.72
61345;BME280;47216;42.656;23.232;2023-05-10T02:18:07;94032.34;;;9.76;77.98
61345;BME280;47216;42.656;23.232;2023-05-10T02:20:37;94032.09;;;9.60;78.66
61345;BME280;47216;42.656;23.232;2023-05-10T02:23:05;94025.56;;;9.75;78.67
61345;BME280;47216;42.656;23.232;2023-05-10T02:25:34;94025.72;;;9.85;77.82
61345;BME280;47216;42.656;23.232;2023-05-10T02:28:03;94020.34;;;9.75;78.37
61345;BME280;47216;42.656;23.232;2023-05-10T02:30:32;94028.47;;;9.78;78.22
61345;BME280;47216;42.656;23.232;2023-05-10T02:33:00;94027.53;;;9.84;77.19
61345;BME280;47216;42.656;23.232;2023-05-10T02:35:28;94022.38;;;9.73;77.52
61345;BME280;47216;42.656;23.232;2023-05-10T02:37:58;94018.56;;;9.75;77.02
61345;BME280;47216;42.656;23.232;2023-05-10T02:40:25;94007.19;;;9.64;76.83
61345;BME280;47216;42.656;23.232;2023-05-10T02:42:54;94012.78;;;9.73;76.42
61345;BME280;47216;42.656;23.232;2023-05-10T02:45:24;94025.97;;;9.66;76.13
61345;BME280;47216;42.656;23.232;2023-05-10T02:47:53;94021.75;;;9.65;75.06
61345;BME280;47216;42.656;23.232;2023-05-10T02:50:21;94022.56;;;9.66;74.35
61345;BME280;47216;42.656;23.232;2023-05-10T02:52:51;94019.00;;;9.72;74.58
61345;BME280;47216;42.656;23.232;2023-05-10T02:55:25;94016.09;;;9.68;74.91
61345;BME280;47216;42.656;23.232;2023-05-10T02:57:57;94031.47;;;9.70;74.75
61345;BME280;47216;42.656;23.232;2023-05-10T03:00:25;94028.63;;;9.72;74.81
61345;BME280;47216;42.656;23.232;2023-05-10T03:02:52;94021.38;;;9.74;75.01
61345;BME280;47216;42.656;23.232;2023-05-10T03:05:19;94025.41;;;9.81;74.89
61345;BME280;47216;42.656;23.232;2023-05-10T03:07:46;94024.13;;;9.84;72.56
61345;BME280;47216;42.656;23.232;2023-05-10T03:10:13;94034.44;;;9.96;72.93
61345;BME280;47216;42.656;23.232;2023-05-10T03:12:52;94027.34;;;9.91;72.26
61345;BME280;47216;42.656;23.232;2023-05-10T03:15:31;94024.22;;;9.89;72.51
61345;BME280;47216;42.656;23.232;2023-05-10T03:18:04;94032.25;;;9.87;71.46
61345;BME280;47216;42.656;23.232;2023-05-10T03:20:36;94032.25;;;9.87;72.70
61345;BME280;47216;42.656;23.232;2023-05-10T03:23:12;94033.94;;;9.94;72.74
61345;BME280;47216;42.656;23.232;2023-05-10T03:25:41;94036.81;;;9.97;72.54
61345;BME280;47216;42.656;23.232;2023-05-10T03:28:11;94040.84;;;9.88;72.18
61345;BME280;47216;42.656;23.232;2023-05-10T03:30:39;94037.16;;;9.84;71.33
61345;BME280;47216;42.656;23.232;2023-05-10T03:33:07;94032.41;;;9.81;72.06
61345;BME280;47216;42.656;23.232;2023-05-10T03:35:34;94054.38;;;9.85;71.34
61345;BME280;47216;42.656;23.232;2023-05-10T03:38:01;94046.94;;;9.77;72.09
61345;BME280;47216;42.656;23.232;2023-05-10T03:40:28;94046.47;;;9.80;72.49
61345;BME280;47216;42.656;23.232;2023-05-10T03:42:57;94046.94;;;9.77;71.91
61345;BME280;47216;42.656;23.232;2023-05-10T03:45:25;94047.00;;;9.82;71.94
61345;BME280;47216;42.656;23.232;2023-05-10T03:47:52;94049.94;;;9.68;72.21
61345;BME280;47216;42.656;23.232;2023-05-10T03:50:19;94049.69;;;9.53;72.20
61345;BME280;47216;42.656;23.232;2023-05-10T03:52:46;94054.97;;;9.58;71.98
61345;BME280;47216;42.656;23.232;2023-05-10T03:55:13;94059.47;;;9.46;72.29
61345;BME280;47216;42.656;23.232;2023-05-10T03:57:39;94057.16;;;9.33;72.24
61345;BME280;47216;42.656;23.232;2023-05-10T04:00:07;94065.22;;;9.31;72.65
61345;BME280;47216;42.656;23.232;2023-05-10T04:02:36;94070.44;;;9.19;72.53
61345;BME280;47216;42.656;23.232;2023-05-10T04:05:03;94068.31;;;9.16;72.20
61345;BME280;47216;42.656;23.232;2023-05-10T04:07:30;94062.09;;;9.17;72.47
61345;BME280;47216;42.656;23.232;2023-05-10T04:09:57;94072.97;;;9.14;72.88
61345;BME280;47216;42.656;23.232;2023-05-10T04:12:24;94073.44;;;9.11;72.93
61345;BME280;47216;42.656;23.232;2023-05-10T04:14:51;94071.75;;;9.05;72.84
61345;BME280;47216;42.656;23.232;2023-05-10T04:17:17;94077.97;;;9.04;73.59
61345;BME280;47216;42.656;23.232;2023-05-10T04:19:45;94079.94;;;8.97;73.26
61345;BME280;47216;42.656;23.232;2023-05-10T04:22:12;94081.50;;;8.98;72.65
61345;BME280;47216;42.656;23.232;2023-05-10T04:24:39;94076.69;;;8.90;73.24
61345;BME280;47216;42.656;23.232;2023-05-10T04:27:06;94074.38;;;8.93;72.74
61345;BME280;47216;42.656;23.232;2023-05-10T04:29:32;94072.00;;;8.92;72.86
61345;BME280;47216;42.656;23.232;2023-05-10T04:31:59;94072.16;;;8.85;73.20
61345;BME280;47216;42.656;23.232;2023-05-10T04:34:26;94079.19;;;8.73;74.00
61345;BME280;47216;42.656;23.232;2023-05-10T04:36:55;94084.97;;;8.63;73.10
61345;BME280;47216;42.656;23.232;2023-05-10T04:39:22;94073.81;;;8.51;73.73
61345;BME280;47216;42.656;23.232;2023-05-10T04:41:48;94060.34;;;8.54;74.34
61345;BME280;47216;42.656;23.232;2023-05-10T04:44:16;94084.72;;;8.76;73.97
61345;BME280;47216;42.656;23.232;2023-05-10T04:46:42;94085.16;;;8.73;73.85
61345;BME280;47216;42.656;23.232;2023-05-10T04:49:09;94075.34;;;8.75;73.35
61345;BME280;47216;42.656;23.232;2023-05-10T04:51:36;94080.78;;;8.74;73.98
61345;BME280;47216;42.656;23.232;2023-05-10T04:54:05;94073.00;;;8.62;73.94
61345;BME280;47216;42.656;23.232;2023-05-10T04:56:31;94069.28;;;8.58;74.26
61345;BME280;47216;42.656;23.232;2023-05-10T04:58:58;94077.28;;;8.68;74.04
61345;BME280;47216;42.656;23.232;2023-05-10T05:01:25;94081.81;;;8.61;74.72
61345;BME280;47216;42.656;23.232;2023-05-10T05:03:52;94081.06;;;9.30;82.60
61345;BME280;47216;42.656;23.232;2023-05-10T05:06:19;94080.34;;;9.80;79.77
61345;BME280;47216;42.656;23.232;2023-05-10T05:08:46;94076.84;;;9.74;73.36
61345;BME280;47216;42.656;23.232;2023-05-10T05:11:16;94084.38;;;9.42;71.76
61345;BME280;47216;42.656;23.232;2023-05-10T05:13:43;94092.00;;;9.32;72.32
61345;BME280;47216;42.656;23.232;2023-05-10T05:16:10;94076.06;;;9.28;72.21
61345;BME280;47216;42.656;23.232;2023-05-10T05:18:37;94084.34;;;9.25;72.23
61345;BME280;47216;42.656;23.232;2023-05-10T05:21:13;94084.56;;;9.23;72.76
61345;BME280;47216;42.656;23.232;2023-05-10T05:23:40;94090.25;;;9.20;73.33
61345;BME280;47216;42.656;23.232;2023-05-10T05:26:07;94091.03;;;9.21;73.12
61345;BME280;47216;42.656;23.232;2023-05-10T05:28:35;94094.81;;;9.13;73.05
61345;BME280;47216;42.656;23.232;2023-05-10T05:31:02;94100.09;;;9.18;73.71
61345;BME280;47216;42.656;23.232;2023-05-10T05:33:29;94092.34;;;9.07;73.96
61345;BME280;47216;42.656;23.232;2023-05-10T05:35:56;94096.63;;;9.01;74.67
61345;BME280;47216;42.656;23.232;2023-05-10T05:38:22;94094.88;;;8.90;74.55
61345;BME280;47216;42.656;23.232;2023-05-10T05:40:49;94101.19;;;8.94;74.93
61345;BME280;47216;42.656;23.232;2023-05-10T05:43:16;94100.19;;;8.95;74.85
61345;BME280;47216;42.656;23.232;2023-05-10T05:45:44;94104.00;;;9.04;75.52
61345;BME280;47216;42.656;23.232;2023-05-10T05:48:11;94101.41;;;9.04;74.86
61345;BME280;47216;42.656;23.232;2023-05-10T05:50:38;94113.28;;;9.00;74.86
61345;BME280;47216;42.656;23.232;2023-05-10T05:53:05;94110.63;;;9.12;75.26
61345;BME280;47216;42.656;23.232;2023-05-10T05:55:31;94106.00;;;9.14;74.44
61345;BME280;47216;42.656;23.232;2023-05-10T05:57:59;94109.38;;;9.14;74.42
61345;BME280;47216;42.656;23.232;2023-05-10T06:00:26;94104.00;;;9.04;74.51
61345;BME280;47216;42.656;23.232;2023-05-10T06:02:54;94105.94;;;8.97;75.29
61345;BME280;47216;42.656;23.232;2023-05-10T06:05:21;94101.19;;;8.94;75.98
61345;BME280;47216;42.656;23.232;2023-05-10T06:07:48;94095.66;;;8.90;76.00
61345;BME280;47216;42.656;23.232;2023-05-10T06:10:15;94102.34;;;8.86;75.93
61345;BME280;47216;42.656;23.232;2023-05-10T06:12:41;94098.47;;;8.89;76.04
61345;BME280;47216;42.656;23.232;2023-05-10T06:15:09;94106.50;;;8.87;76.12
61345;BME280;47216;42.656;23.232;2023-05-10T06:17:36;94110.91;;;8.87;76.44
61345;BME280;47216;42.656;23.232;2023-05-10T06:20:06;94111.38;;;8.83;76.57
61345;BME280;47216;42.656;23.232;2023-05-10T06:22:34;94110.19;;;8.62;76.87
61345;BME280;47216;42.656;23.232;2023-05-10T06:25:00;94111.63;;;8.70;77.48
61345;BME280;47216;42.656;23.232;2023-05-10T06:27:27;94117.06;;;8.80;77.55
61345;BME280;47216;42.656;23.232;2023-05-10T06:29:54;94112.75;;;8.74;77.64
61345;BME280;47216;42.656;23.232;2023-05-10T06:32:21;94107.56;;;8.74;77.40
61345;BME280;47216;42.656;23.232;2023-05-10T06:34:48;94117.72;;;8.88;76.83
61345;BME280;47216;42.656;23.232;2023-05-10T06:37:16;94117.44;;;9.01;76.37
61345;BME280;47216;42.656;23.232;2023-05-10T06:39:43;94124.03;;;8.92;77.29
61345;BME280;47216;42.656;23.232;2023-05-10T06:42:10;94119.94;;;8.96;75.88
61345;BME280;47216;42.656;23.232;2023-05-10T06:44:37;94126.75;;;8.73;76.59
61345;BME280;47216;42.656;23.232;2023-05-10T06:47:04;94129.59;;;8.83;76.47
61345;BME280;47216;42.656;23.232;2023-05-10T06:49:30;94112.06;;;8.79;76.15
61345;BME280;47216;42.656;23.232;2023-05-10T06:51:57;94114.75;;;8.96;77.00
61345;BME280;47216;42.656;23.232;2023-05-10T06:54:26;94124.38;;;8.83;76.98
61345;BME280;47216;42.656;23.232;2023-05-10T06:56:53;94119.75;;;8.86;75.67
61345;BME280;47216;42.656;23.232;2023-05-10T06:59:20;94127.22;;;8.70;76.61
61345;BME280;47216;42.656;23.232;2023-05-10T07:01:46;94130.59;;;8.82;76.10
61345;BME280;47216;42.656;23.232;2023-05-10T07:04:13;94134.47;;;8.68;76.58
61345;BME280;47216;42.656;23.232;2023-05-10T07:06:40;94131.53;;;8.76;76.21
61345;BME280;47216;42.656;23.232;2023-05-10T07:09:07;94130.63;;;8.71;76.73
61345;BME280;47216;42.656;23.232;2023-05-10T07:11:35;94133.34;;;8.64;76.92
61345;BME280;47216;42.656;23.232;2023-05-10T07:14:02;94134.81;;;8.60;75.85
61345;BME280;47216;42.656;23.232;2023-05-10T07:16:29;94138.41;;;8.71;76.41
61345;BME280;47216;42.656;23.232;2023-05-10T07:18:56;94140.72;;;8.55;75.70
61345;BME280;47216;42.656;23.232;2023-05-10T07:21:23;94132.91;;;8.55;75.77
61345;BME280;47216;42.656;23.232;2023-05-10T07:23:50;94138.19;;;8.72;75.92
61345;BME280;47216;42.656;23.232;2023-05-10T07:26:17;94139.31;;;8.88;76.30
61345;BME280;47216;42.656;23.232;2023-05-10T07:28:46;94138.25;;;9.01;76.23
61345;BME280;47216;42.656;23.232;2023-05-10T07:31:13;94143.13;;;8.97;75.32
61345;BME280;47216;42.656;23.232;2023-05-10T07:33:39;94150.97;;;8.86;75.59
61345;BME280;47216;42.656;23.232;2023-05-10T07:36:06;94149.13;;;8.86;76.55
61345;BME280;47216;42.656;23.232;2023-05-10T07:38:33;94147.78;;;8.83;74.98
61345;BME280;47216;42.656;23.232;2023-05-10T07:41:00;94143.75;;;8.76;77.10
61345;BME280;47216;42.656;23.232;2023-05-10T07:43:27;94140.75;;;8.96;75.83
61345;BME280;47216;42.656;23.232;2023-05-10T07:45:55;94152.44;;;8.81;76.03
61345;BME280;47216;42.656;23.232;2023-05-10T07:48:23;94148.09;;;8.87;76.15
61345;BME280;47216;42.656;23.232;2023-05-10T07:50:49;94157.50;;;8.88;75.47
61345;BME280;47216;42.656;23.232;2023-05-10T07:53:16;94153.00;;;8.83;75.93
61345;BME280;47216;42.656;23.232;2023-05-10T07:55:49;94153.19;;;8.94;74.81
61345;BME280;47216;42.656;23.232;2023-05-10T07:58:17;94149.25;;;8.91;74.76
61345;BME280;47216;42.656;23.232;2023-05-10T08:00:43;94155.69;;;8.89;75.08
61345;BME280;47216;42.656;23.232;2023-05-10T08:03:12;94158.94;;;8.96;75.89
61345;BME280;47216;42.656;23.232;2023-05-10T08:05:42;94159.41;;;8.93;75.74
61345;BME280;47216;42.656;23.232;2023-05-10T08:08:09;94165.22;;;8.83;75.09
61345;BME280;47216;42.656;23.232;2023-05-10T08:10:39;94162.16;;;8.86;74.76
61345;BME280;47216;42.656;23.232;2023-05-10T08:13:06;94160.13;;;8.76;76.24
61345;BME280;47216;42.656;23.232;2023-05-10T08:15:33;94148.91;;;8.88;75.33
61345;BME280;47216;42.656;23.232;2023-05-10T08:18:00;94141.25;;;8.81;74.72
61345;BME280;47216;42.656;23.232;2023-05-10T08:20:28;94156.16;;;8.86;74.95
61345;BME280;47216;42.656;23.232;2023-05-10T08:22:55;94162.22;;;9.03;75.19
61345;BME280;47216;42.656;23.232;2023-05-10T08:25:22;94163.47;;;9.00;74.67
61345;BME280;47216;42.656;23.232;2023-05-10T08:27:52;94168.00;;;8.93;75.39
61345;BME280;47216;42.656;23.232;2023-05-10T08:30:19;94162.44;;;9.13;75.24
61345;BME280;47216;42.656;23.232;2023-05-10T08:32:46;94144.78;;;9.15;75.24
61345;BME280;47216;42.656;23.232;2023-05-10T08:35:13;94156.63;;;9.23;74.53
61345;BME280;47216;42.656;23.232;2023-05-10T08:37:43;94170.66;;;9.34;74.22
61345;BME280;47216;42.656;23.232;2023-05-10T08:40:11;94153.28;;;9.11;74.23
61345;BME280;47216;42.656;23.232;2023-05-10T08:42:40;94163.44;;;9.12;74.90
61345;BME280;47216;42.656;23.232;2023-05-10T08:45:10;94149.78;;;9.05;75.42
61345;BME280;47216;42.656;23.232;2023-05-10T08:47:38;94129.50;;;8.78;75.92
61345;BME280;47216;42.656;23.232;2023-05-10T08:50:06;94158.72;;;9.09;76.46
61345;BME280;47216;42.656;23.232;2023-05-10T08:52:37;94143.66;;;9.11;76.75
61345;BME280;47216;42.656;23.232;2023-05-10T08:55:07;94154.38;;;9.27;76.34
61345;BME280;47216;42.656;23.232;2023-05-10T08:57:34;94155.59;;;9.36;75.07
61345;BME280;47216;42.656;23.232;2023-05-10T09:00:04;94147.88;;;9.41;76.14
61345;BME280;47216;42.656;23.232;2023-05-10T09:02:31;94150.38;;;9.36;75.34
61345;BME280;47216;42.656;23.232;2023-05-10T09:04:58;94144.63;;;9.34;75.00
61345;BME280;47216;42.656;23.232;2023-05-10T09:07:24;94164.06;;;9.43;75.45
61345;BME280;47216;42.656;23.232;2023-05-10T09:09:52;94165.25;;;9.52;75.58
61345;BME280;47216;42.656;23.232;2023-05-10T09:12:22;94151.13;;;9.48;74.76
61345;BME280;47216;42.656;23.232;2023-05-10T09:14:50;94161.50;;;9.60;74.88
61345;BME280;47216;42.656;23.232;2023-05-10T09:17:19;94159.63;;;9.72;74.87
61345;BME280;47216;42.656;23.232;2023-05-10T09:19:45;94159.63;;;9.72;74.41
61345;BME280;47216;42.656;23.232;2023-05-10T09:22:12;94162.34;;;9.65;74.70
61345;BME280;47216;42.656;23.232;2023-05-10T09:24:39;94149.66;;;9.69;74.18
61345;BME280;47216;42.656;23.232;2023-05-10T09:27:10;94159.47;;;9.79;73.49
61345;BME280;47216;42.656;23.232;2023-05-10T09:29:42;94155.75;;;9.75;72.86
61345;BME280;47216;42.656;23.232;2023-05-10T09:32:09;94160.59;;;9.83;73.41
61345;BME280;47216;42.656;23.232;2023-05-10T09:34:36;94159.75;;;9.94;74.11
61345;BME280;47216;42.656;23.232;2023-05-10T09:37:05;94155.53;;;9.93;73.90
61345;BME280;47216;42.656;23.232;2023-05-10T09:39:34;94152.94;;;9.93;73.30
61345;BME280;47216;42.656;23.232;2023-05-10T09:42:03;94143.25;;;10.05;73.33
61345;BME280;47216;42.656;23.232;2023-05-10T09:44:31;94153.34;;;10.19;72.14
61345;BME280;47216;42.656;23.232;2023-05-10T09:46:59;94144.19;;;10.16;71.46
61345;BME280;47216;42.656;23.232;2023-05-10T09:49:26;94148.41;;;10.34;72.08
61345;BME280;47216;42.656;23.232;2023-05-10T09:52:01;94143.75;;;10.36;72.29
61345;BME280;47216;42.656;23.232;2023-05-10T09:54:29;94138.19;;;10.16;72.99
61345;BME280;47216;42.656;23.232;2023-05-10T09:56:56;94142.63;;;10.32;72.74
61345;BME280;47216;42.656;23.232;2023-05-10T09:59:25;94147.03;;;10.48;70.76
61345;BME280;47216;42.656;23.232;2023-05-10T10:01:52;94140.59;;;10.34;71.63
61345;BME280;47216;42.656;23.232;2023-05-10T10:04:21;94141.06;;;10.31;71.25
61345;BME280;47216;42.656;23.232;2023-05-10T10:06:58;94132.94;;;10.44;71.87
61345;BME280;47216;42.656;23.232;2023-05-10T10:09:26;94130.84;;;10.46;70.44
61345;BME280;47216;42.656;23.232;2023-05-10T10:11:54;94129.50;;;10.61;70.54
61345;BME280;47216;42.656;23.232;2023-05-10T10:14:21;94131.47;;;10.54;68.84
61345;BME280;47216;42.656;23.232;2023-05-10T10:16:49;94120.34;;;10.41;69.77
61345;BME280;47216;42.656;23.232;2023-05-10T10:19:17;94124.75;;;10.58;69.81
61345;BME280;47216;42.656;23.232;2023-05-10T10:21:49;94123.31;;;10.67;69.46
61345;BME280;47216;42.656;23.232;2023-05-10T10:24:16;94128.88;;;10.54;68.85
61345;BME280;47216;42.656;23.232;2023-05-10T10:26:44;94129.50;;;10.44;69.37
61345;BME280;47216;42.656;23.232;2023-05-10T10:29:21;94121.47;;;10.45;70.06
61345;BME280;47216;42.656;23.232;2023-05-10T10:31:55;94139.00;;;10.50;70.78
61345;BME280;47216;42.656;23.232;2023-05-10T10:34:26;94137.81;;;10.41;69.34
61345;BME280;47216;42.656;23.232;2023-05-10T10:36:56;94136.06;;;10.46;69.76
61345;BME280;47216;42.656;23.232;2023-05-10T10:39:24;94134.38;;;10.35;70.00
61345;BME280;47216;42.656;23.232;2023-05-10T10:41:52;94137.44;;;10.32;70.24
61345;BME280;47216;42.656;23.232;2023-05-10T10:44:32;94130.63;;;10.48;70.52
61345;BME280;47216;42.656;23.232;2023-05-10T10:47:01;94129.91;;;10.52;69.02
61345;BME280;47216;42.656;23.232;2023-05-10T10:49:31;94125.72;;;10.51;69.70
61345;BME280;47216;42.656;23.232;2023-05-10T10:52:18;94140.09;;;10.37;70.08
61345;BME280;47216;42.656;23.232;2023-05-10T10:54:50;94142.81;;;10.42;70.23
61345;BME280;47216;42.656;23.232;2023-05-10T10:57:19;94119.56;;;10.41;69.90
61345;BME280;47216;42.656;23.232;2023-05-10T10:59:47;94141.13;;;10.53;69.82
61345;BME280;47216;42.656;23.232;2023-05-10T11:02:33;94132.03;;;10.56;69.23
61345;BME280;47216;42.656;23.232;2023-05-10T11:05:23;94140.75;;;10.44;69.84
61345;BME280;47216;42.656;23.232;2023-05-10T11:07:55;94134.34;;;10.52;69.80
61345;BME280;47216;42.656;23.232;2023-05-10T11:10:23;94136.47;;;10.38;70.40
61345;BME280;47216;42.656;23.232;2023-05-10T11:12:51;94123.75;;;10.59;70.04
61345;BME280;47216;42.656;23.232;2023-05-10T11:15:19;94129.59;;;10.32;70.26
61345;BME280;47216;42.656;23.232;2023-05-10T11:17:48;94130.47;;;10.38;70.47
61345;BME280;47216;42.656;23.232;2023-05-10T11:20:17;94107.59;;;10.40;69.73
61345;BME280;47216;42.656;23.232;2023-05-10T11:22:51;94134.44;;;10.40;70.02
61345;BME280;47216;42.656;23.232;2023-05-10T11:25:19;94116.13;;;10.35;69.68
61345;BME280;47216;42.656;23.232;2023-05-10T11:27:48;94129.78;;;10.42;71.37
61345;BME280;47216;42.656;23.232;2023-05-10T11:30:14;94128.88;;;10.54;70.52
61345;BME280;47216;42.656;23.232;2023-05-10T11:32:42;94132.03;;;10.56;70.51
61345;BME280;47216;42.656;23.232;2023-05-10T11:35:10;94135.50;;;10.61;69.73
61345;BME280;47216;42.656;23.232;2023-05-10T11:37:38;94137.72;;;10.52;69.52
61345;BME280;47216;42.656;23.232;2023-05-10T11:40:09;94126.75;;;10.50;70.25
61345;BME280;47216;42.656;23.232;2023-05-10T11:42:37;94138.22;;;10.49;69.77
61345;BME280;47216;42.656;23.232;2023-05-10T11:45:05;94129.50;;;10.44;69.73
61345;BME280;47216;42.656;23.232;2023-05-10T11:47:32;94129.97;;;10.58;70.40
61345;BME280;47216;42.656;23.232;2023-05-10T11:50:01;94129.13;;;10.74;69.22
61345;BME280;47216;42.656;23.232;2023-05-10T11:52:28;94122.75;;;10.65;69.56
61345;BME280;47216;42.656;23.232;2023-05-10T11:54:55;94119.47;;;10.52;70.13
61345;BME280;47216;42.656;23.232;2023-05-10T11:57:27;94126.91;;;10.61;70.10
61345;BME280;47216;42.656;23.232;2023-05-10T11:59:56;94127.91;;;10.60;69.82
61345;BME280;47216;42.656;23.232;2023-05-10T12:02:23;94117.31;;;10.66;70.39
61345;BME280;47216;42.656;23.232;2023-05-10T12:04:50;94111.94;;;10.73;69.43
61345;BME280;47216;42.656;23.232;2023-05-10T12:07:17;94127.91;;;10.60;69.97
61345;BME280;47216;42.656;23.232;2023-05-10T12:09:44;94117.63;;;10.70;69.82
61345;BME280;47216;42.656;23.232;2023-05-10T12:12:15;94117.75;;;10.80;69.59
61345;BME280;47216;42.656;23.232;2023-05-10T12:14:42;94111.59;;;10.86;69.21
61345;BME280;47216;42.656;23.232;2023-05-10T12:17:12;94114.75;;;10.88;69.03
61345;BME280;47216;42.656;23.232;2023-05-10T12:19:40;94110.41;;;10.77;69.44
61345;BME280;47216;42.656;23.232;2023-05-10T12:22:07;94115.91;;;10.98;69.91
61345;BME280;47216;42.656;23.232;2023-05-10T12:24:34;94115.81;;;10.92;69.45
61345;BME280;47216;42.656;23.232;2023-05-10T12:27:04;94109.88;;;10.75;70.07
61345;BME280;47216;42.656;23.232;2023-05-10T12:29:33;94100.34;;;10.86;70.13
61345;BME280;47216;42.656;23.232;2023-05-10T12:32:00;94110.47;;;10.82;69.74
61345;BME280;47216;42.656;23.232;2023-05-10T12:34:30;94108.41;;;10.84;68.95
61345;BME280;47216;42.656;23.232;2023-05-10T12:36:58;94100.53;;;10.79;69.42
61345;BME280;47216;42.656;23.232;2023-05-10T12:39:25;94100.66;;;10.89;69.92
61345;BME280;47216;42.656;23.232;2023-05-10T12:41:52;94104.34;;;10.93;69.86
61345;BME280;47216;42.656;23.232;2023-05-10T12:44:19;94100.94;;;11.15;69.48
61345;BME280;47216;42.656;23.232;2023-05-10T12:46:46;94100.91;;;11.10;69.17
61345;BME280;47216;42.656;23.232;2023-05-10T12:49:13;94099.13;;;11.15;68.54
61345;BME280;47216;42.656;23.232;2023-05-10T12:51:41;94099.38;;;11.14;69.18
61345;BME280;47216;42.656;23.232;2023-05-10T12:54:08;94091.09;;;11.22;69.01
61345;BME280;47216;42.656;23.232;2023-05-10T12:56:35;94089.34;;;11.06;69.21
61345;BME280;47216;42.656;23.232;2023-05-10T12:59:02;94092.94;;;11.00;69.39
61345;BME280;47216;42.656;23.232;2023-05-10T13:01:29;94089.00;;;11.19;69.15
61345;BME280;47216;42.656;23.232;2023-05-10T13:03:55;94089.97;;;11.13;69.20